createdAt,value
2018-09-18T00:01:40.157Z,90.40
2018-09-18T00:04:07.830Z,90.30
2018-09-18T00:06:35.510Z,91.30
2018-09-18T00:09:04.313Z,91.60
2018-09-18T00:11:32.064Z,91.90
2018-09-18T00:13:59.694Z,92.00
2018-09-18T00:21:22.400Z,93.10
2018-09-18T00:23:50.063Z,93.10
2018-09-18T00:26:17.672Z,93.30
2018-09-18T00:28:45.342Z,93.20
2018-09-18T00:31:12.965Z,93.40
2018-09-18T00:33:40.607Z,93.70
2018-09-18T00:36:08.275Z,93.70
2018-09-18T00:38:35.931Z,93.80
2018-09-18T00:41:03.573Z,93.80
2018-09-18T00:45:58.798Z,94.10
2018-09-18T00:48:26.418Z,94.30
2018-09-18T00:50:54.041Z,94.40
2018-09-18T00:53:21.701Z,94.60
2018-09-18T00:55:49.336Z,94.70
2018-09-18T00:58:17.002Z,94.80
2018-09-18T01:00:44.692Z,95.00
2018-09-18T01:03:12.320Z,95.10
2018-09-18T01:05:40.019Z,95.30
2018-09-18T01:10:35.251Z,95.40
2018-09-18T01:13:02.863Z,95.30
2018-09-18T01:15:30.559Z,95.40
2018-09-18T01:20:25.920Z,95.60
2018-09-18T01:25:21.358Z,95.60
2018-09-18T01:27:49.028Z,95.80
2018-09-18T01:30:16.698Z,96.00
2018-09-18T01:35:11.950Z,96.20
2018-09-18T01:40:07.270Z,96.30
2018-09-18T01:42:34.899Z,96.30
2018-09-18T01:45:02.878Z,96.60
2018-09-18T01:49:58.338Z,96.50
2018-09-18T01:52:25.964Z,96.50
2018-09-18T01:54:53.711Z,96.50
2018-09-18T01:57:21.689Z,96.60
2018-09-18T01:59:50.354Z,96.80
2018-09-18T02:04:45.706Z,96.80
2018-09-18T02:07:13.591Z,96.80
2018-09-18T02:09:41.450Z,97.00
2018-09-18T02:14:36.939Z,97.10
2018-09-18T02:17:04.716Z,97.20
2018-09-18T02:19:32.518Z,97.00
2018-09-18T02:22:00.378Z,96.70
2018-09-18T02:24:28.290Z,96.70
2018-09-18T02:26:56.088Z,96.90
2018-09-18T02:29:23.720Z,96.40
2018-09-18T02:31:51.402Z,96.10
2018-09-18T02:34:19.050Z,95.60
2018-09-18T02:41:42.474Z,94.60
2018-09-18T02:44:10.184Z,94.30
2018-09-18T02:49:05.627Z,93.50
2018-09-18T02:54:00.914Z,93.10
2018-09-18T02:56:28.559Z,93.20
2018-09-18T02:58:56.255Z,92.90
2018-09-18T03:01:24.234Z,93.20
2018-09-18T03:03:51.893Z,92.80
2018-09-18T03:06:19.522Z,92.90
2018-09-18T03:08:47.263Z,92.80
2018-09-18T03:11:14.920Z,93.10
2018-09-18T03:13:42.628Z,93.20
2018-09-18T03:16:10.294Z,93.50
2018-09-18T03:18:38.783Z,93.70
2018-09-18T03:23:34.362Z,94.00
2018-09-18T03:26:02.067Z,94.40
2018-09-18T03:28:29.768Z,94.70
2018-09-18T03:35:52.462Z,95.30
2018-09-18T03:40:47.843Z,95.70
2018-09-18T03:43:15.487Z,96.10
2018-09-18T03:45:43.116Z,95.80
2018-09-18T03:48:10.837Z,95.80
2018-09-18T03:53:06.019Z,95.00
2018-09-18T03:55:33.638Z,94.70
2018-09-18T03:58:01.267Z,94.40
2018-09-18T04:05:23.947Z,93.10
2018-09-18T04:07:51.559Z,93.30
2018-09-18T04:10:19.316Z,93.60
2018-09-18T04:15:14.508Z,94.10
2018-09-18T04:17:42.238Z,94.40
2018-09-18T04:25:05.006Z,94.60
2018-09-18T04:27:32.598Z,94.70
2018-09-18T04:30:00.224Z,95.10
2018-09-18T04:32:27.854Z,95.10
2018-09-18T04:34:55.511Z,95.30
2018-09-18T04:37:23.164Z,95.20
2018-09-18T04:39:50.830Z,95.20
2018-09-18T04:44:46.003Z,95.30
2018-09-18T04:47:13.623Z,95.50
2018-09-18T04:52:08.818Z,96.00
2018-09-18T04:54:36.462Z,96.00
2018-09-18T04:57:04.205Z,95.90
2018-09-18T04:59:31.895Z,96.00
2018-09-18T05:01:59.645Z,95.90
2018-09-18T05:06:54.854Z,96.10
2018-09-18T05:11:50.047Z,96.30
2018-09-18T05:24:07.931Z,94.60
2018-09-18T05:31:30.690Z,92.90
2018-09-18T05:33:58.370Z,90.90
2018-09-18T05:36:26.009Z,91.10
2018-09-18T05:38:53.710Z,89.20
2018-09-18T05:41:21.306Z,85.50
2018-09-18T05:43:48.936Z,81.00
2018-09-18T05:46:16.605Z,75.70
2018-09-18T05:48:44.344Z,69.80
2018-09-18T05:51:11.947Z,67.40
2018-09-18T05:53:39.658Z,63.00
2018-09-18T05:56:07.372Z,59.40
2018-09-18T05:58:34.992Z,56.70
2018-09-18T06:01:02.694Z,55.10
2018-09-18T06:03:30.343Z,55.10
2018-09-18T06:05:57.988Z,52.90
2018-09-18T06:08:25.630Z,52.20
2018-09-18T06:10:53.252Z,49.50
2018-09-18T06:13:20.908Z,53.40
2018-09-18T06:15:48.551Z,55.50
2018-09-18T06:18:16.279Z,51.30
2018-09-18T06:20:44.309Z,51.80
2018-09-18T06:23:11.952Z,48.40
2018-09-18T06:25:39.683Z,47.00
2018-09-18T06:28:07.378Z,47.60
2018-09-18T06:30:34.970Z,43.90
2018-09-18T06:33:02.650Z,44.40
2018-09-18T06:35:30.276Z,43.60
2018-09-18T06:37:57.875Z,41.30
2018-09-18T06:40:25.480Z,41.80
2018-09-18T06:42:53.071Z,41.20
2018-09-18T06:45:20.674Z,43.10
2018-09-18T06:47:48.303Z,45.50
2018-09-18T06:50:15.927Z,52.20
2018-09-18T06:55:11.110Z,52.70
2018-09-18T07:02:33.862Z,62.20
2018-09-18T07:14:51.970Z,49.60
2018-09-18T07:17:19.565Z,45.40
2018-09-18T07:19:47.279Z,41.60
2018-09-18T07:22:15.003Z,39.40
2018-09-18T07:24:42.661Z,37.80
2018-09-18T07:27:10.304Z,36.90
2018-09-18T07:29:37.928Z,35.60
2018-09-18T07:32:05.582Z,34.60
2018-09-18T07:34:33.202Z,34.50
2018-09-18T07:37:00.831Z,33.50
2018-09-18T07:39:28.514Z,33.40
2018-09-18T07:41:56.432Z,32.40
2018-09-18T07:44:24.183Z,31.30
2018-09-18T07:46:51.842Z,30.70
2018-09-18T07:49:19.468Z,31.40
2018-09-18T07:51:47.082Z,31.30
2018-09-18T07:54:14.743Z,32.50
2018-09-18T07:56:42.387Z,32.90
2018-09-18T07:59:10.030Z,36.10
2018-09-18T08:01:37.643Z,39.20
2018-09-18T08:04:05.317Z,40.60
2018-09-18T08:06:33.014Z,41.50
2018-09-18T08:11:28.246Z,46.20
2018-09-18T08:16:23.472Z,47.10
2018-09-18T08:18:51.163Z,47.50
2018-09-18T08:23:53.026Z,49.10
2018-09-18T08:26:20.734Z,49.80
2018-09-18T08:28:48.367Z,49.50
2018-09-18T08:31:15.990Z,49.20
2018-09-18T08:33:43.665Z,49.50
2018-09-18T08:36:11.294Z,53.50
2018-09-18T08:38:38.935Z,54.00
2018-09-18T08:41:06.611Z,54.60
2018-09-18T08:43:34.235Z,55.10
2018-09-18T08:46:01.916Z,55.70
2018-09-18T08:48:30.706Z,57.00
2018-09-18T08:50:59.590Z,55.20
2018-09-18T08:53:27.514Z,53.90
2018-09-18T08:55:55.219Z,52.50
2018-09-18T08:58:22.991Z,52.20
2018-09-18T09:00:50.718Z,51.90
2018-09-18T09:03:18.736Z,50.10
2018-09-18T09:05:46.378Z,50.70
2018-09-18T09:08:14.593Z,50.30
2018-09-18T09:10:42.157Z,49.70
2018-09-18T09:13:09.851Z,51.20
2018-09-18T09:18:05.389Z,49.70
2018-09-18T09:20:33.022Z,49.50
2018-09-18T09:23:00.770Z,50.10
2018-09-18T09:25:28.692Z,49.80
2018-09-18T09:27:56.389Z,50.00
2018-09-18T09:30:24.027Z,49.50
2018-09-18T09:32:51.658Z,50.40
2018-09-18T09:35:19.295Z,50.90
2018-09-18T09:37:46.944Z,49.80
2018-09-18T09:40:14.567Z,49.50
2018-09-18T09:42:42.191Z,49.90
2018-09-18T09:45:09.899Z,51.10
2018-09-18T09:47:37.499Z,51.90
2018-09-18T09:50:05.543Z,50.70
2018-09-18T09:52:33.175Z,50.40
2018-09-18T09:55:00.809Z,52.30
2018-09-18T09:57:28.429Z,52.80
2018-09-18T09:59:56.055Z,50.60
2018-09-18T10:02:27.498Z,50.10
2018-09-18T10:04:55.305Z,50.60
2018-09-18T10:07:22.942Z,51.00
2018-09-18T10:09:50.544Z,50.30
2018-09-18T10:12:18.226Z,50.40
2018-09-18T10:14:45.869Z,50.90
2018-09-18T10:17:13.494Z,50.20
2018-09-18T10:19:41.087Z,50.60
2018-09-18T10:22:08.716Z,50.50
2018-09-18T10:24:36.336Z,49.50
2018-09-18T10:27:04.127Z,48.80
2018-09-18T10:29:31.628Z,49.30
2018-09-18T10:34:27.223Z,50.00
2018-09-18T10:36:54.848Z,49.70
2018-09-18T10:39:22.612Z,49.00
2018-09-18T10:41:50.275Z,49.10
2018-09-18T10:44:17.930Z,49.80
2018-09-18T10:46:45.575Z,50.00
2018-09-18T10:54:08.275Z,51.10
2018-09-18T10:56:35.927Z,50.80
2018-09-18T10:59:03.606Z,50.80
2018-09-18T11:01:31.303Z,48.90
2018-09-18T11:03:58.948Z,48.10
2018-09-18T11:06:26.623Z,49.90
2018-09-18T11:11:21.890Z,49.80
2018-09-18T11:13:49.613Z,50.80
2018-09-18T11:16:17.184Z,51.90
2018-09-18T11:23:40.458Z,52.30
2018-09-18T11:31:03.755Z,51.10
2018-09-18T11:35:59.779Z,51.50
2018-09-18T11:40:54.968Z,51.90
2018-09-18T11:43:22.623Z,52.60
2018-09-18T11:48:17.846Z,50.20
2018-09-18T11:53:13.031Z,52.40
2018-09-18T11:55:40.666Z,51.30
2018-09-18T11:58:08.299Z,51.90
2018-09-18T12:00:35.938Z,52.50
2018-09-18T12:03:03.583Z,51.50
2018-09-18T12:05:31.260Z,52.00
2018-09-18T12:07:58.901Z,50.00
2018-09-18T12:10:26.554Z,49.50
2018-09-18T12:15:21.800Z,49.90
2018-09-18T12:17:49.422Z,49.60
2018-09-18T12:22:44.613Z,49.50
2018-09-18T12:25:12.243Z,52.90
2018-09-18T12:27:39.866Z,51.80
2018-09-18T12:30:08.127Z,50.70
2018-09-18T12:35:03.462Z,49.90
2018-09-18T12:37:31.120Z,50.00
2018-09-18T12:39:58.738Z,49.40
2018-09-18T12:42:26.423Z,49.20
2018-09-18T12:44:54.021Z,48.80
2018-09-18T12:47:21.647Z,48.80
2018-09-18T12:52:16.963Z,49.00
2018-09-18T12:54:44.638Z,48.00
2018-09-18T12:59:39.880Z,47.90
2018-09-18T13:02:07.451Z,47.60
2018-09-18T13:07:03.028Z,47.70
2018-09-18T13:11:58.161Z,47.10
2018-09-18T13:14:25.850Z,48.00
2018-09-18T13:16:53.461Z,47.90
2018-09-18T13:19:21.079Z,46.90
2018-09-18T13:21:48.701Z,49.30
2018-09-18T13:26:43.967Z,46.30
2018-09-18T13:29:12.410Z,48.80
2018-09-18T13:31:40.099Z,48.80
2018-09-18T13:41:30.819Z,47.80
2018-09-18T13:43:58.542Z,48.20
2018-09-18T13:46:26.227Z,46.10
2018-09-18T13:48:53.852Z,45.90
2018-09-18T13:53:49.120Z,46.90
2018-09-18T13:56:16.960Z,47.00
2018-09-18T14:01:12.102Z,46.80
2018-09-18T14:11:02.635Z,44.70
2018-09-18T14:13:30.327Z,44.70
2018-09-18T14:23:20.639Z,44.20
2018-09-18T14:25:48.259Z,44.60
2018-09-18T14:28:15.915Z,45.70
2018-09-18T14:35:38.762Z,45.60
2018-09-18T14:48:03.098Z,47.40
2018-09-18T14:52:58.209Z,47.30
2018-09-18T15:00:20.909Z,48.40
2018-09-18T15:02:48.531Z,48.90
2018-09-18T15:05:16.184Z,47.30
2018-09-18T15:10:11.419Z,48.40
2018-09-18T15:15:13.180Z,47.60
2018-09-18T15:17:40.806Z,48.30
2018-09-18T15:25:03.574Z,51.20
2018-09-18T15:27:31.260Z,51.20
2018-09-18T15:29:58.969Z,52.00
2018-09-18T15:34:54.250Z,52.10
2018-09-18T15:44:44.590Z,53.00
2018-09-18T15:47:12.233Z,53.20
2018-09-18T15:59:30.084Z,55.50
2018-09-18T16:06:53.209Z,56.30
2018-09-18T16:09:20.862Z,56.90
2018-09-18T16:11:48.533Z,57.50
2018-09-18T16:16:44.078Z,59.80
2018-09-18T16:21:39.355Z,62.70
2018-09-18T16:24:06.991Z,64.50
2018-09-18T16:26:34.744Z,64.10
2018-09-18T16:29:03.854Z,61.10
2018-09-18T16:36:26.698Z,59.80
2018-09-18T16:46:16.998Z,56.40
2018-09-18T16:48:44.671Z,53.70
2018-09-18T16:51:12.278Z,55.10
2018-09-18T16:53:39.919Z,56.00
2018-09-18T16:56:07.632Z,56.90
2018-09-18T17:03:30.415Z,60.70
2018-09-18T17:05:58.020Z,60.60
2018-09-18T17:10:53.274Z,59.30
2018-09-18T17:13:21.026Z,59.40
2018-09-18T17:15:48.612Z,58.80
2018-09-18T17:18:16.240Z,58.80
2018-09-18T17:20:43.911Z,59.20
2018-09-18T17:25:39.050Z,59.30
2018-09-18T17:28:06.698Z,60.60
2018-09-18T17:30:34.523Z,60.70
2018-09-18T17:37:57.378Z,56.70
2018-09-18T17:40:25.013Z,56.20
2018-09-18T17:42:52.695Z,55.60
2018-09-18T17:45:20.373Z,54.80
2018-09-18T17:47:48.022Z,55.00
2018-09-18T17:50:15.695Z,54.80
2018-09-18T18:00:06.202Z,57.80
2018-09-18T18:09:57.579Z,57.00
2018-09-18T18:12:25.223Z,57.80
2018-09-18T18:14:52.889Z,58.90
2018-09-18T18:17:20.510Z,59.20
2018-09-18T18:19:48.160Z,58.20
2018-09-18T18:24:43.395Z,58.30
2018-09-18T18:27:11.042Z,58.30
2018-09-18T18:39:29.200Z,61.20
2018-09-18T18:46:51.963Z,61.80
2018-09-18T18:51:47.170Z,66.20
2018-09-18T18:56:42.403Z,66.10
2018-09-18T18:59:10.047Z,63.50
2018-09-18T19:01:37.682Z,64.90
2018-09-18T19:04:05.311Z,64.90
2018-09-18T19:06:33.037Z,66.60
2018-09-18T19:09:00.600Z,64.00
2018-09-18T19:13:55.786Z,63.00
2018-09-18T19:16:23.417Z,62.80
2018-09-18T19:18:51.213Z,64.50
2018-09-18T19:21:18.711Z,65.40
2018-09-18T19:28:41.503Z,68.00
2018-09-18T19:31:09.308Z,68.40
2018-09-18T19:33:37.052Z,69.00
2018-09-18T19:36:04.743Z,69.80
2018-09-18T19:38:32.380Z,70.40
2018-09-18T19:41:00.005Z,70.80
2018-09-18T19:43:27.658Z,72.10
2018-09-18T19:48:22.841Z,70.40
2018-09-18T19:50:50.555Z,69.00
2018-09-18T19:55:45.719Z,71.40
2018-09-18T19:58:13.352Z,72.20
2018-09-18T20:00:40.991Z,72.00
2018-09-18T20:03:09.364Z,72.20
2018-09-18T20:05:37.988Z,72.60
2018-09-18T20:08:06.211Z,73.30
2018-09-18T20:10:34.080Z,74.20
2018-09-18T20:13:01.764Z,74.70
2018-09-18T20:15:29.429Z,75.40
2018-09-18T20:20:24.581Z,77.80
2018-09-18T20:25:19.892Z,76.30
2018-09-18T20:27:47.548Z,77.70
2018-09-18T20:30:15.199Z,77.30
2018-09-18T20:32:42.842Z,76.40
2018-09-18T20:35:10.546Z,77.40
2018-09-18T20:37:38.185Z,78.50
2018-09-18T20:40:05.936Z,79.00
2018-09-18T20:42:33.555Z,79.30
2018-09-18T20:45:01.189Z,79.60
2018-09-18T20:47:28.818Z,78.70
2018-09-18T20:49:56.509Z,78.50
2018-09-18T20:52:24.174Z,79.00
2018-09-18T20:54:51.796Z,79.80
2018-09-18T20:57:19.506Z,80.30
2018-09-18T20:59:47.121Z,81.40
2018-09-18T21:02:14.834Z,82.00
2018-09-18T21:04:42.503Z,83.40
2018-09-18T21:09:37.640Z,86.20
2018-09-18T21:12:05.255Z,86.60
2018-09-18T21:14:32.891Z,87.20
2018-09-18T21:17:00.507Z,87.30
2018-09-18T21:21:56.015Z,87.50
2018-09-18T21:24:23.698Z,87.80
2018-09-18T21:26:51.331Z,88.20
2018-09-18T21:29:19.021Z,88.60
2018-09-18T21:31:46.683Z,88.40
2018-09-18T21:34:14.383Z,89.60
2018-09-18T21:41:38.238Z,88.60
2018-09-18T21:44:05.866Z,87.70
2018-09-18T21:53:56.600Z,87.40
2018-09-18T21:58:51.997Z,93.20
2018-09-18T22:01:19.798Z,92.20
2018-09-18T22:03:47.614Z,91.20
2018-09-18T22:06:15.487Z,90.60
2018-09-18T22:08:43.143Z,90.20
2018-09-18T22:11:10.930Z,89.70
2018-09-18T22:13:38.611Z,89.40
2018-09-18T22:16:06.431Z,89.60
2018-09-18T22:18:34.103Z,88.60
2018-09-18T22:21:01.824Z,88.10
2018-09-18T22:23:29.588Z,87.60
2018-09-18T22:25:57.358Z,87.30
2018-09-18T22:28:25.272Z,88.90
2018-09-18T22:30:52.990Z,89.20
2018-09-18T22:33:20.693Z,87.80
2018-09-18T22:35:48.587Z,86.90
2018-09-18T22:38:16.265Z,88.40
2018-09-18T22:40:44.018Z,89.20
2018-09-18T22:43:11.763Z,89.70
2018-09-18T22:45:39.407Z,90.00
2018-09-18T22:50:34.558Z,90.90
2018-09-18T22:53:02.207Z,91.10
2018-09-18T22:55:29.939Z,91.30
2018-09-18T23:02:52.734Z,92.10
2018-09-18T23:05:20.387Z,92.40
2018-09-18T23:07:48.024Z,92.70
2018-09-18T23:15:11.614Z,93.20
2018-09-18T23:17:39.291Z,93.20
2018-09-18T23:25:02.396Z,93.60
2018-09-18T23:32:25.446Z,94.10
2018-09-18T23:34:53.087Z,94.20
2018-09-18T23:37:20.723Z,94.60
2018-09-18T23:39:48.373Z,94.80
2018-09-18T23:42:16.008Z,94.80
2018-09-18T23:44:43.667Z,95.10
2018-09-18T23:49:38.885Z,95.40
2018-09-18T23:52:06.575Z,95.50
2018-09-18T23:57:01.764Z,95.60
